Time;durP1;ratioP1;P1;durP2;ratioP2;P2;SDS_P1;SDS_P2;PMS_P1;PMS_P2;Temp;Humidity;BMP_temperature;BMP_pressure;BME280_temperature;BME280_humidity;BME280_pressure;Samples;Min_cycle;Max_cycle;Signal;HPM_P1;HPM_P2
2021/03/09 00:01:26;;;;;;;4.05;2.05;;;1.50;56.30;;;;;;5061358;28;20071;-54
2021/03/09 00:03:52;;;;;;;3.72;2.15;;;1.50;57.10;;;;;;5078695;28;20032;-54
2021/03/09 00:06:17;;;;;;;6.95;2.35;;;1.50;57.30;;;;;;5080241;28;20496;-55
2021/03/09 00:08:43;;;;;;;4.80;2.13;;;1.40;56.70;;;;;;5095370;28;20039;-55
2021/03/09 00:11:09;;;;;;;4.72;2.50;;;1.50;56.80;;;;;;5101096;28;20028;-53
2021/03/09 00:13:34;;;;;;;3.30;1.80;;;1.50;56.80;;;;;;5093941;28;20554;-52
2021/03/09 00:16:00;;;;;;;5.88;2.50;;;1.40;56.40;;;;;;5101792;28;20407;-53
2021/03/09 00:18:26;;;;;;;5.90;2.50;;;1.50;57.30;;;;;;5101208;28;20063;-54
2021/03/09 00:20:51;;;;;;;4.90;1.98;;;1.40;57.10;;;;;;5102857;28;20044;-56
2021/03/09 00:23:17;;;;;;;4.18;2.40;;;1.40;58.40;;;;;;5094499;28;20051;-54
2021/03/09 00:25:43;;;;;;;6.05;2.63;;;1.40;58.10;;;;;;5080026;28;20050;-55
2021/03/09 00:28:08;;;;;;;5.32;2.13;;;1.40;58.20;;;;;;5096540;28;20028;-53
2021/03/09 00:30:34;;;;;;;5.43;2.47;;;1.40;58.60;;;;;;5094476;28;20035;-55
2021/03/09 00:33:00;;;;;;;3.97;2.15;;;1.40;58.60;;;;;;5097468;28;20051;-50
2021/03/09 00:35:25;;;;;;;3.90;1.90;;;1.40;57.90;;;;;;5095970;28;20039;-55
2021/03/09 00:37:51;;;;;;;4.93;2.40;;;1.30;58.20;;;;;;5099325;28;20383;-53
2021/03/09 00:40:17;;;;;;;6.55;2.30;;;1.20;59.00;;;;;;5094749;28;20043;-56
2021/03/09 00:42:42;;;;;;;4.60;1.90;;;1.20;59.20;;;;;;5071469;28;20043;-54
2021/03/09 00:45:09;;;;;;;6.18;2.25;;;1.20;59.30;;;;;;5096890;28;20031;-54
2021/03/09 00:47:34;;;;;;;5.80;2.28;;;1.20;59.10;;;;;;5098998;28;20024;-55
2021/03/09 00:50:00;;;;;;;5.18;1.98;;;1.10;59.10;;;;;;5092065;28;20518;-58
2021/03/09 00:52:26;;;;;;;4.47;1.83;;;1.10;58.90;;;;;;5098167;28;20106;-55
2021/03/09 00:54:51;;;;;;;3.92;2.25;;;1.10;58.80;;;;;;5086148;28;20027;-56
2021/03/09 00:57:17;;;;;;;6.65;2.13;;;1.10;59.30;;;;;;5078137;28;20031;-53
2021/03/09 00:59:43;;;;;;;6.88;2.40;;;1.00;59.10;;;;;;5078626;28;20044;-54
2021/03/09 01:02:08;;;;;;;6.82;2.75;;;1.00;59.40;;;;;;5078591;28;20035;-56
2021/03/09 01:04:34;;;;;;;8.48;2.78;;;1.00;58.70;;;;;;5078519;28;20541;-55
2021/03/09 01:06:59;;;;;;;6.47;2.33;;;1.00;59.30;;;;;;5077610;28;20032;-58
2021/03/09 01:09:25;;;;;;;4.50;2.30;;;0.90;58.60;;;;;;5090825;28;20718;-55
2021/03/09 01:11:51;;;;;;;5.15;1.88;;;0.90;58.10;;;;;;5080344;28;20043;-55
2021/03/09 01:14:17;;;;;;;5.03;1.98;;;0.90;58.40;;;;;;5092451;28;20035;-54
2021/03/09 01:16:42;;;;;;;3.28;1.75;;;0.80;59.20;;;;;;5097357;28;20697;-55
2021/03/09 01:19:08;;;;;;;6.07;2.75;;;0.80;58.20;;;;;;5093260;28;20123;-54
2021/03/09 01:21:34;;;;;;;6.32;2.20;;;0.80;58.20;;;;;;5098420;28;20043;-55
2021/03/09 01:24:00;;;;;;;3.40;2.30;;;0.80;58.00;;;;;;5095401;28;20083;-54
2021/03/09 01:26:26;;;;;;;4.20;2.05;;;0.90;59.40;;;;;;5098786;28;20131;-55
2021/03/09 01:28:52;;;;;;;4.75;2.17;;;0.90;58.30;;;;;;5097211;28;20035;-55
2021/03/09 01:31:17;;;;;;;5.38;2.20;;;0.90;58.40;;;;;;5081613;28;20040;-55
2021/03/09 01:33:43;;;;;;;6.32;2.10;;;0.90;58.80;;;;;;5077551;28;20059;-55
2021/03/09 01:36:09;;;;;;;4.35;1.90;;;0.90;58.40;;;;;;5076465;28;20059;-55
2021/03/09 01:38:34;;;;;;;5.00;2.25;;;0.90;59.10;;;;;;5077599;28;20207;-56
2021/03/09 01:41:01;;;;;;;5.20;1.95;;;0.90;58.40;;;;;;5077404;28;20777;-54
2021/03/09 01:43:27;;;;;;;7.05;2.35;;;0.90;58.20;;;;;;5077360;28;20487;-52
2021/03/09 01:45:53;;;;;;;5.60;2.25;;;0.90;58.20;;;;;;5076585;28;20073;-56
2021/03/09 01:48:21;;;;;;;3.10;1.63;;;0.90;58.50;;;;;;5097488;28;20031;-56
2021/03/09 01:50:48;;;;;;;3.53;1.88;;;0.90;58.50;;;;;;5096692;28;20035;-54
2021/03/09 01:53:14;;;;;;;6.78;2.63;;;0.80;58.80;;;;;;5092324;28;20045;-56
2021/03/09 01:55:40;;;;;;;5.20;1.85;;;0.80;58.80;;;;;;5077664;28;20028;-55
2021/03/09 01:58:10;;;;;;;5.93;2.08;;;0.80;58.60;;;;;;5076344;28;20111;-53
2021/03/09 02:00:36;;;;;;;4.22;2.28;;;0.80;58.50;;;;;;5076863;28;20028;-56
2021/03/09 02:03:02;;;;;;;5.32;2.00;;;0.90;58.10;;;;;;5058740;28;20032;-55
2021/03/09 02:05:28;;;;;;;4.25;2.10;;;0.90;57.80;;;;;;5076692;28;20772;-54
2021/03/09 02:07:54;;;;;;;5.35;2.00;;;0.90;58.60;;;;;;5077765;28;20059;-55
2021/03/09 02:10:20;;;;;;;3.42;2.03;;;0.80;58.00;;;;;;5077826;28;20111;-55
2021/03/09 02:13:13;;;;;;;6.82;2.22;;;0.90;57.80;;;;;;5077790;28;20024;-56
2021/03/09 02:16:19;;;;;;;4.65;1.98;;;0.90;57.80;;;;;;5078479;28;20036;-55
2021/03/09 02:19:04;;;;;;;5.25;1.95;;;0.90;57.80;;;;;;5098363;28;20475;-56
2021/03/09 02:22:02;;;;;;;4.05;2.35;;;0.80;58.10;;;;;;5098476;28;20050;-55
2021/03/09 02:24:55;;;;;;;6.95;2.50;;;0.80;58.10;;;;;;5041850;28;20129;-55
2021/03/09 02:27:39;;;;;;;4.70;1.95;;;0.80;58.40;;;;;;5098888;28;20126;-54
2021/03/09 02:30:24;;;;;;;3.33;1.92;;;0.80;58.40;;;;;;5099089;28;20078;-55
2021/03/09 02:32:59;;;;;;;5.32;2.25;;;0.80;58.60;;;;;;5098031;28;20770;-55
2021/03/09 02:35:26;;;;;;;5.20;2.30;;;0.80;58.70;;;;;;5095933;28;20043;-55
2021/03/09 02:37:57;;;;;;;5.05;2.38;;;0.80;58.40;;;;;;5097098;28;20028;-56
2021/03/09 02:40:25;;;;;;;4.78;2.20;;;0.80;58.10;;;;;;5096453;28;20043;-54
2021/03/09 02:42:56;;;;;;;3.88;2.08;;;0.70;58.50;;;;;;5095925;28;20795;-52
2021/03/09 02:45:23;;;;;;;7.97;2.45;;;0.70;58.40;;;;;;5096218;28;20431;-55
2021/03/09 02:47:51;;;;;;;10.00;2.85;;;0.80;58.80;;;;;;5096161;28;20062;-53
2021/03/09 02:50:21;;;;;;;8.38;2.42;;;0.70;59.20;;;;;;5096223;28;20043;-55
2021/03/09 02:52:54;;;;;;;5.50;2.28;;;0.70;58.70;;;;;;5096220;28;20035;-54
2021/03/09 02:55:22;;;;;;;5.05;2.20;;;0.70;59.40;;;;;;5079305;28;20032;-54
2021/03/09 02:57:50;;;;;;;4.45;2.42;;;0.70;58.60;;;;;;5075764;28;20101;-56
2021/03/09 03:00:18;;;;;;;4.03;1.80;;;0.70;58.70;;;;;;5076617;28;20031;-56
2021/03/09 03:02:45;;;;;;;7.75;1.98;;;0.70;58.50;;;;;;5058535;28;20479;-54
2021/03/09 03:05:12;;;;;;;6.47;2.35;;;0.70;58.50;;;;;;5076214;28;20036;-54
2021/03/09 03:07:39;;;;;;;4.00;2.25;;;0.80;58.00;;;;;;5077432;28;20051;-56
2021/03/09 03:10:14;;;;;;;6.75;3.03;;;0.60;57.70;;;;;;5076427;28;20035;-56
2021/03/09 03:12:41;;;;;;;8.65;2.38;;;0.70;58.70;;;;;;5076809;28;20032;-52
2021/03/09 03:15:09;;;;;;;6.03;2.30;;;0.60;59.50;;;;;;5075900;28;20700;-55
2021/03/09 03:17:36;;;;;;;6.32;3.13;;;0.50;59.10;;;;;;5077115;28;20569;-55
2021/03/09 03:20:06;;;;;;;6.95;2.30;;;0.50;58.80;;;;;;5075968;28;20059;-56
2021/03/09 03:22:32;;;;;;;8.52;3.03;;;0.50;59.70;;;;;;5058608;28;20503;-55
2021/03/09 03:25:03;;;;;;;7.45;3.03;;;0.50;59.40;;;;;;5076275;28;20633;-56
2021/03/09 03:27:30;;;;;;;5.78;2.70;;;0.50;59.50;;;;;;5094578;28;20100;-55
2021/03/09 03:29:56;;;;;;;6.72;2.75;;;0.50;59.30;;;;;;5097063;28;20036;-54
2021/03/09 03:32:22;;;;;;;6.30;2.42;;;0.50;59.50;;;;;;5096525;28;20041;-56
2021/03/09 03:34:48;;;;;;;8.98;2.85;;;0.60;59.30;;;;;;5096327;28;20803;-55
2021/03/09 03:37:14;;;;;;;6.80;2.75;;;0.60;60.30;;;;;;5095629;28;20035;-55
2021/03/09 03:39:40;;;;;;;11.05;2.90;;;0.50;59.50;;;;;;5096520;28;20059;-56
2021/03/09 03:42:06;;;;;;;4.70;2.40;;;0.50;59.70;;;;;;5096089;28;20036;-56
2021/03/09 03:44:33;;;;;;;6.25;2.40;;;0.50;59.70;;;;;;5096964;28;20406;-55
2021/03/09 03:46:59;;;;;;;5.90;2.30;;;0.50;59.50;;;;;;5096363;28;20140;-55
2021/03/09 03:49:25;;;;;;;6.05;2.10;;;0.40;59.90;;;;;;5095677;28;20031;-55
2021/03/09 03:52:02;;;;;;;5.35;2.47;;;0.40;60.10;;;;;;5097110;28;20031;-54
2021/03/09 03:55:16;;;;;;;5.47;2.85;;;0.40;59.90;;;;;;5086637;28;20575;-55
2021/03/09 03:57:47;;;;;;;4.18;2.20;;;0.30;60.00;;;;;;4992502;28;20092;-53
2021/03/09 04:00:16;;;;;;;7.45;2.85;;;0.30;60.40;;;;;;5068238;28;20056;-54
2021/03/09 04:02:44;;;;;;;4.03;2.03;;;0.20;60.40;;;;;;5076009;28;20111;-54
2021/03/09 04:05:11;;;;;;;5.20;2.20;;;0.20;60.90;;;;;;5074802;28;20974;-53
2021/03/09 04:07:40;;;;;;;5.60;2.58;;;0.10;60.90;;;;;;5076198;28;20084;-53
2021/03/09 04:10:06;;;;;;;6.63;2.53;;;0.20;61.20;;;;;;5096021;28;20768;-56
2021/03/09 04:12:34;;;;;;;6.25;2.47;;;0.20;60.70;;;;;;5100468;28;20035;-55
2021/03/09 04:15:00;;;;;;;9.15;2.40;;;0.20;60.60;;;;;;5081561;28;20449;-54
2021/03/09 04:17:27;;;;;;;9.68;2.47;;;0.10;60.80;;;;;;5100563;28;20387;-54
2021/03/09 04:19:55;;;;;;;7.93;2.72;;;0.10;61.60;;;;;;5099744;28;20039;-55
2021/03/09 04:22:23;;;;;;;7.78;2.90;;;0.10;61.00;;;;;;5099545;28;20051;-54
2021/03/09 04:24:50;;;;;;;8.27;3.17;;;0.10;60.90;;;;;;5095251;28;20043;-54
2021/03/09 04:27:21;;;;;;;6.55;2.17;;;0.10;61.10;;;;;;5080419;28;20045;-55
2021/03/09 04:29:52;;;;;;;5.57;3.10;;;0.10;61.20;;;;;;5099937;28;20036;-53
2021/03/09 04:32:19;;;;;;;7.47;2.63;;;0.10;61.60;;;;;;5099967;28;20019;-53
2021/03/09 04:34:45;;;;;;;5.05;2.45;;;0.20;61.50;;;;;;5100909;28;20096;-55
2021/03/09 04:37:13;;;;;;;8.02;2.75;;;0.10;62.00;;;;;;5101467;28;20491;-56
2021/03/09 04:39:40;;;;;;;9.27;3.10;;;0.20;61.40;;;;;;5095028;28;20046;-54
2021/03/09 04:42:07;;;;;;;5.38;2.50;;;0.20;61.10;;;;;;5080252;28;20216;-53
2021/03/09 04:44:32;;;;;;;7.03;2.75;;;0.20;61.00;;;;;;5086751;28;20111;-56
2021/03/09 04:46:59;;;;;;;7.97;3.28;;;0.20;61.10;;;;;;5086192;28;20039;-55
2021/03/09 04:49:26;;;;;;;6.40;2.70;;;0.30;61.30;;;;;;5083677;28;20046;-54
2021/03/09 04:51:52;;;;;;;6.85;2.78;;;0.40;61.30;;;;;;5079079;28;20079;-54
2021/03/09 04:54:17;;;;;;;8.50;2.90;;;0.40;60.70;;;;;;5090084;28;20118;-55
2021/03/09 04:56:43;;;;;;;7.30;2.90;;;0.50;60.60;;;;;;5089894;28;20027;-55
2021/03/09 04:59:09;;;;;;;9.85;2.78;;;0.60;60.80;;;;;;5086267;28;20825;-55
2021/03/09 05:01:34;;;;;;;6.03;2.42;;;0.60;61.20;;;;;;5085220;28;20949;-56
2021/03/09 05:04:00;;;;;;;6.65;2.45;;;0.70;60.60;;;;;;5079257;28;20028;-54
2021/03/09 05:06:26;;;;;;;5.15;2.85;;;0.70;60.10;;;;;;5086185;28;20148;-59
2021/03/09 05:08:51;;;;;;;6.80;2.95;;;0.70;59.90;;;;;;5078347;28;20542;-53
2021/03/09 05:11:17;;;;;;;5.47;3.05;;;0.80;59.60;;;;;;5077867;28;20035;-55
2021/03/09 05:13:43;;;;;;;5.57;2.67;;;0.80;59.60;;;;;;5084732;28;20500;-55
2021/03/09 05:16:08;;;;;;;8.48;2.90;;;0.70;59.30;;;;;;5090084;28;20032;-55
2021/03/09 05:18:34;;;;;;;8.30;2.72;;;0.80;59.60;;;;;;5082885;28;20039;-55
2021/03/09 05:20:59;;;;;;;6.47;3.25;;;0.70;59.60;;;;;;5078271;28;20039;-55
2021/03/09 05:23:25;;;;;;;5.38;2.67;;;0.70;59.70;;;;;;5081078;28;20066;-54
2021/03/09 05:25:51;;;;;;;7.03;2.83;;;0.70;60.10;;;;;;5088014;28;20032;-56
2021/03/09 05:28:17;;;;;;;5.80;2.72;;;0.70;60.00;;;;;;5084952;28;20028;-56
2021/03/09 05:30:42;;;;;;;6.63;2.78;;;0.70;59.50;;;;;;5079348;28;20062;-55
2021/03/09 05:33:08;;;;;;;5.45;2.80;;;0.70;59.30;;;;;;5086519;28;20830;-57
2021/03/09 05:35:34;;;;;;;7.10;3.00;;;0.60;59.90;;;;;;5088887;28;20584;-55
2021/03/09 05:38:00;;;;;;;7.80;3.13;;;0.60;59.80;;;;;;5086183;28;20028;-56
2021/03/09 05:40:26;;;;;;;8.10;3.30;;;0.60;60.80;;;;;;5080524;28;20103;-55
2021/03/09 05:42:53;;;;;;;6.90;2.65;;;0.60;60.30;;;;;;5078563;28;20040;-55
2021/03/09 05:45:21;;;;;;;7.47;2.95;;;0.70;60.60;;;;;;5079893;28;20671;-56
2021/03/09 05:47:47;;;;;;;7.15;3.20;;;0.70;60.00;;;;;;5087948;28;20047;-55
2021/03/09 05:50:14;;;;;;;8.98;3.20;;;0.80;60.20;;;;;;5077566;28;20042;-56
2021/03/09 05:52:41;;;;;;;7.38;3.25;;;0.80;59.90;;;;;;5078547;28;20038;-55
2021/03/09 05:55:09;;;;;;;8.10;2.78;;;0.80;60.00;;;;;;5085612;28;20027;-56
2021/03/09 05:57:35;;;;;;;7.45;3.25;;;0.80;59.70;;;;;;5086582;28;20027;-56
2021/03/09 06:00:03;;;;;;;9.25;3.25;;;0.90;59.90;;;;;;5086078;28;20566;-54
2021/03/09 06:02:38;;;;;;;9.77;3.22;;;0.90;59.30;;;;;;5080726;28;20032;-54
2021/03/09 06:05:05;;;;;;;8.02;3.22;;;0.80;60.00;;;;;;5081418;28;20480;-54
2021/03/09 06:07:31;;;;;;;6.82;3.45;;;0.80;60.10;;;;;;5080966;28;20048;-55
2021/03/09 06:09:56;;;;;;;5.40;3.00;;;0.90;60.30;;;;;;5086329;28;20092;-55
2021/03/09 06:12:24;;;;;;;9.27;3.63;;;0.80;59.90;;;;;;5090401;28;20031;-55
2021/03/09 06:14:56;;;;;;;8.43;3.35;;;0.90;60.00;;;;;;5090644;28;20680;-54
2021/03/09 06:17:37;;;;;;;9.60;3.38;;;0.90;60.00;;;;;;5083210;28;20028;-56
2021/03/09 06:20:05;;;;;;;10.68;2.85;;;1.00;60.60;;;;;;5085974;28;20063;-55
2021/03/09 06:22:42;;;;;;;7.97;3.35;;;1.10;59.90;;;;;;5084157;28;20115;-54
2021/03/09 06:25:10;;;;;;;6.95;3.47;;;1.20;59.20;;;;;;5088800;28;20038;-56
2021/03/09 06:27:36;;;;;;;7.72;3.42;;;1.20;59.20;;;;;;5089129;28;20024;-57
2021/03/09 06:30:07;;;;;;;8.18;3.30;;;1.20;58.40;;;;;;5084431;28;20039;-55
2021/03/09 06:32:40;;;;;;;7.93;2.97;;;1.20;58.50;;;;;;5075989;28;20032;-55
2021/03/09 06:35:07;;;;;;;9.80;3.55;;;1.00;58.60;;;;;;5066599;28;20115;-56
2021/03/09 06:37:33;;;;;;;7.82;3.53;;;0.90;59.70;;;;;;5084510;28;20034;-56
2021/03/09 06:40:06;;;;;;;7.18;2.90;;;0.90;58.90;;;;;;5093843;28;20071;-60
2021/03/09 06:42:37;;;;;;;7.18;3.58;;;1.00;59.50;;;;;;5085356;28;20038;-59
2021/03/09 06:45:14;;;;;;;10.57;3.83;;;1.10;59.70;;;;;;5082758;28;20042;-54
2021/03/09 06:47:46;;;;;;;10.27;3.50;;;1.30;58.70;;;;;;5083365;28;20036;-60
2021/03/09 06:50:17;;;;;;;9.25;3.67;;;1.40;58.50;;;;;;5093635;28;20122;-53
2021/03/09 06:52:58;;;;;;;8.60;3.85;;;1.50;57.80;;;;;;5086798;28;20119;-56
2021/03/09 06:55:28;;;;;;;6.28;3.30;;;1.50;57.60;;;;;;5088338;28;20036;-56
2021/03/09 06:58:10;;;;;;;9.15;3.83;;;1.60;57.70;;;;;;5081581;28;20039;-57
2021/03/09 07:00:37;;;;;;;10.82;3.10;;;1.70;57.70;;;;;;5068894;28;20043;-55
2021/03/09 07:03:03;;;;;;;7.75;3.42;;;1.80;57.00;;;;;;5076569;28;20050;-57
2021/03/09 07:05:29;;;;;;;9.38;3.67;;;1.90;56.50;;;;;;5083106;28;20028;-56
2021/03/09 07:07:54;;;;;;;7.88;3.25;;;1.90;57.00;;;;;;5080517;28;20046;-56
2021/03/09 07:10:22;;;;;;;7.30;3.30;;;2.00;56.60;;;;;;5087468;28;20454;-56
2021/03/09 07:12:49;;;;;;;9.30;3.28;;;2.00;56.90;;;;;;5082719;28;20024;-55
2021/03/09 07:15:17;;;;;;;6.85;3.80;;;2.10;56.10;;;;;;5075395;28;20039;-55
2021/03/09 07:17:44;;;;;;;7.80;3.30;;;2.10;56.40;;;;;;5082407;28;20080;-55
2021/03/09 07:20:15;;;;;;;8.52;3.72;;;2.30;56.20;;;;;;5093291;28;20039;-56
2021/03/09 07:22:43;;;;;;;7.47;3.50;;;2.30;55.00;;;;;;5075251;28;20046;-60
2021/03/09 07:25:15;;;;;;;7.28;3.08;;;2.30;55.40;;;;;;5066290;28;20095;-61
2021/03/09 07:28:02;;;;;;;9.23;3.42;;;2.40;55.60;;;;;;5064163;28;20039;-60
2021/03/09 07:30:31;;;;;;;8.35;3.75;;;2.50;55.30;;;;;;5086586;28;20043;-60
2021/03/09 07:32:58;;;;;;;6.95;3.53;;;2.50;54.70;;;;;;5091338;28;20816;-61
2021/03/09 07:35:25;;;;;;;8.18;3.65;;;2.40;55.10;;;;;;5091902;28;20032;-60
2021/03/09 07:37:52;;;;;;;8.25;3.72;;;2.60;54.90;;;;;;5088942;28;20575;-60
2021/03/09 07:40:23;;;;;;;11.20;3.70;;;2.70;54.60;;;;;;5090549;28;20458;-61
2021/03/09 07:42:48;;;;;;;5.93;3.00;;;2.80;53.70;;;;;;5088447;28;20031;-60
2021/03/09 07:45:19;;;;;;;9.77;3.70;;;2.80;53.70;;;;;;5094688;28;20054;-60
2021/03/09 07:47:50;;;;;;;9.77;3.17;;;3.00;53.70;;;;;;5081029;28;20042;-60
2021/03/09 07:50:17;;;;;;;9.05;3.70;;;3.20;53.20;;;;;;5094335;28;20672;-60
2021/03/09 07:53:03;;;;;;;8.57;3.40;;;3.40;52.60;;;;;;5090501;28;20639;-60
2021/03/09 07:55:30;;;;;;;11.52;3.95;;;3.80;51.90;;;;;;5088276;28;20047;-60
2021/03/09 07:58:13;;;;;;;9.60;3.88;;;3.90;50.90;;;;;;5080716;28;20077;-60
2021/03/09 08:01:01;;;;;;;9.95;4.20;;;4.10;51.10;;;;;;5081590;28;20277;-61
2021/03/09 08:03:33;;;;;;;9.07;3.67;;;4.40;50.40;;;;;;5085778;28;20047;-61
2021/03/09 08:06:14;;;;;;;9.10;3.40;;;4.70;49.70;;;;;;5084735;28;20032;-61
2021/03/09 08:08:46;;;;;;;7.85;3.88;;;4.80;48.80;;;;;;5090737;28;20035;-61
2021/03/09 08:11:22;;;;;;;8.15;3.80;;;4.90;50.20;;;;;;5097090;28;20028;-61
2021/03/09 08:14:03;;;;;;;;;;;5.10;49.40;;;;;;5084909;28;20039;-61
2021/03/09 08:16:36;;;;;;;8.40;3.95;;;5.20;49.20;;;;;;5082386;28;19912;-60
2021/03/09 08:19:09;;;;;;;9.25;3.83;;;5.30;47.90;;;;;;5079231;28;20043;-60
2021/03/09 08:21:51;;;;;;;9.02;3.85;;;5.20;47.60;;;;;;5078799;28;20043;-61
2021/03/09 08:24:37;;;;;;;9.00;3.30;;;5.20;48.10;;;;;;5082293;28;20126;-61
2021/03/09 08:27:03;;;;;;;8.75;3.60;;;5.20;47.80;;;;;;5086917;28;20097;-61
2021/03/09 08:29:28;;;;;;;6.85;3.60;;;5.30;47.80;;;;;;5072372;28;20052;-61
2021/03/09 08:32:30;;;;;;;8.75;3.58;;;5.10;47.90;;;;;;5083575;28;20032;-61
2021/03/09 08:35:21;;;;;;;9.43;3.15;;;5.10;48.70;;;;;;4999330;28;20107;-69
2021/03/09 08:37:49;;;;;;;9.07;4.97;;;5.00;48.10;;;;;;5058439;28;20044;-68
2021/03/09 08:40:22;;;;;;;12.13;3.53;;;5.10;48.00;;;;;;5082702;28;20038;-61
2021/03/09 08:43:00;;;;;;;8.27;3.88;;;5.10;47.60;;;;;;5085765;28;20062;-61
2021/03/09 08:45:52;;;;;;;6.80;3.25;;;5.30;48.70;;;;;;5082905;28;20488;-61
2021/03/09 08:48:38;;;;;;;10.52;3.65;;;5.40;48.00;;;;;;5075654;28;20036;-61
2021/03/09 08:51:04;;;;;;;6.20;2.75;;;5.60;47.20;;;;;;5074485;28;20408;-60
2021/03/09 08:53:31;;;;;;;8.15;3.38;;;5.80;46.10;;;;;;5085071;28;20042;-62
2021/03/09 08:56:06;;;;;;;7.90;3.97;;;5.90;46.50;;;;;;5082906;28;20036;-62
2021/03/09 08:58:39;;;;;;;8.50;3.88;;;6.00;46.80;;;;;;5087853;28;20043;-61
2021/03/09 09:01:06;;;;;;;8.75;3.85;;;6.20;46.50;;;;;;5076073;28;20139;-61
2021/03/09 09:03:38;;;;;;;8.43;3.65;;;6.40;46.50;;;;;;5076147;28;20043;-62
2021/03/09 09:06:05;;;;;;;7.63;3.40;;;6.70;46.00;;;;;;5085625;28;20108;-62
2021/03/09 09:08:32;;;;;;;7.80;3.10;;;7.10;45.80;;;;;;5091218;28;20064;-61
2021/03/09 09:10:59;;;;;;;10.00;3.50;;;7.50;43.90;;;;;;5088198;28;20028;-62
2021/03/09 09:13:35;;;;;;;6.28;3.67;;;7.90;43.10;;;;;;5085069;28;20131;-62
2021/03/09 09:16:15;;;;;;;7.43;3.03;;;8.10;42.80;;;;;;5087532;28;20435;-62
2021/03/09 09:18:40;;;;;;;6.18;2.92;;;8.30;40.00;;;;;;5084891;28;20042;-62
2021/03/09 09:21:06;;;;;;;6.18;3.13;;;8.00;39.70;;;;;;5088293;28;20032;-61
2021/03/09 09:23:35;;;;;;;4.70;2.85;;;8.20;40.80;;;;;;5085327;28;20185;-61
2021/03/09 09:26:01;;;;;;;9.65;3.40;;;8.40;40.70;;;;;;5083533;28;20143;-66
2021/03/09 09:28:32;;;;;;;6.55;2.85;;;8.50;39.20;;;;;;5095512;28;20661;-65
2021/03/09 09:31:00;;;;;;;5.85;3.25;;;8.70;39.00;;;;;;5083159;28;20032;-61
2021/03/09 09:33:29;;;;;;;8.40;3.45;;;9.10;40.40;;;;;;5091548;28;20059;-61
2021/03/09 09:35:55;;;;;;;6.28;3.30;;;9.10;38.10;;;;;;5085620;28;20105;-61
2021/03/09 09:38:20;;;;;;;5.38;3.03;;;9.10;39.40;;;;;;5086581;28;20045;-65
2021/03/09 09:40:49;;;;;;;6.20;3.50;;;8.70;38.30;;;;;;5092705;28;20027;-61
2021/03/09 09:43:17;;;;;;;4.60;2.78;;;8.50;39.70;;;;;;5093174;28;20024;-62
2021/03/09 09:45:49;;;;;;;4.43;2.72;;;8.50;39.70;;;;;;5087590;28;20119;-61
2021/03/09 09:48:21;;;;;;;8.07;3.47;;;8.50;40.50;;;;;;5087396;28;20383;-61
2021/03/09 09:50:49;;;;;;;6.88;3.08;;;8.60;40.00;;;;;;5078174;28;20607;-61
2021/03/09 09:53:33;;;;;;;5.40;3.45;;;8.40;38.90;;;;;;5085481;28;20113;-60
2021/03/09 09:56:00;;;;;;;7.65;3.35;;;8.30;40.70;;;;;;5070394;28;20627;-61
2021/03/09 09:58:52;;;;;;;6.03;3.40;;;8.20;39.50;;;;;;5088598;27;20031;-60
2021/03/09 10:01:26;;;;;;;7.88;3.17;;;8.00;41.00;;;;;;5072496;28;20055;-59
2021/03/09 10:03:57;;;;;;;6.25;3.28;;;8.00;40.80;;;;;;5065971;28;20031;-60
2021/03/09 10:06:28;;;;;;;6.53;3.63;;;8.10;40.80;;;;;;5080278;28;20124;-61
2021/03/09 10:08:55;;;;;;;7.95;3.35;;;8.30;40.70;;;;;;5077417;28;20070;-60
2021/03/09 10:11:22;;;;;;;7.35;3.67;;;8.40;40.10;;;;;;5082613;28;20034;-60
2021/03/09 10:13:48;;;;;;;6.00;3.53;;;8.40;39.80;;;;;;5086243;28;20043;-61
2021/03/09 10:16:14;;;;;;;6.97;3.10;;;8.40;39.50;;;;;;5093641;28;20032;-62
2021/03/09 10:18:40;;;;;;;10.43;3.40;;;8.20;39.80;;;;;;5087867;28;20034;-60
2021/03/09 10:21:13;;;;;;;6.05;2.95;;;8.40;41.20;;;;;;5047560;28;20025;-61
2021/03/09 10:23:59;;;;;;;7.32;3.05;;;8.40;38.80;;;;;;5084708;28;20080;-61
2021/03/09 10:26:36;;;;;;;5.50;2.58;;;8.40;39.60;;;;;;5085083;28;20295;-61
2021/03/09 10:29:03;;;;;;;9.30;2.67;;;8.20;39.00;;;;;;5064014;28;20935;-61
2021/03/09 10:31:48;;;;;;;6.70;2.85;;;8.30;39.10;;;;;;5083956;28;20764;-62
2021/03/09 10:34:20;;;;;;;4.10;2.50;;;8.30;39.30;;;;;;5084683;28;20092;-60
2021/03/09 10:37:00;;;;;;;4.95;2.58;;;8.40;40.60;;;;;;5042556;28;20151;-59
2021/03/09 10:39:27;;;;;;;4.20;2.20;;;8.40;39.50;;;;;;5071154;28;20072;-59
2021/03/09 10:41:53;;;;;;;5.07;2.90;;;8.50;39.90;;;;;;5063528;28;20023;-58
2021/03/09 10:44:36;;;;;;;4.85;2.45;;;8.50;40.70;;;;;;5084367;28;20420;-60
2021/03/09 10:47:05;;;;;;;4.80;2.58;;;8.20;40.20;;;;;;5079709;28;20067;-59
2021/03/09 10:49:32;;;;;;;4.85;2.92;;;8.20;40.00;;;;;;5083182;28;20081;-60
2021/03/09 10:52:00;;;;;;;3.60;2.35;;;8.20;39.50;;;;;;5087294;28;20020;-60
2021/03/09 10:54:25;;;;;;;3.47;2.10;;;8.20;40.30;;;;;;5091111;28;20579;-59
2021/03/09 10:56:51;;;;;;;6.40;2.58;;;8.30;38.20;;;;;;5077212;28;20040;-59
2021/03/09 10:59:17;;;;;;;5.95;2.58;;;8.30;39.10;;;;;;5083220;28;20063;-59
2021/03/09 11:01:43;;;;;;;3.83;2.25;;;8.30;38.00;;;;;;5089017;27;20035;-59
2021/03/09 11:04:08;;;;;;;6.95;3.25;;;8.40;39.00;;;;;;5090972;28;20050;-59
2021/03/09 11:06:34;;;;;;;3.90;1.90;;;8.60;38.10;;;;;;5078710;28;20165;-59
2021/03/09 11:09:00;;;;;;;3.65;2.05;;;8.70;38.10;;;;;;5082774;28;20553;-59
2021/03/09 11:11:25;;;;;;;10.82;2.50;;;8.70;38.50;;;;;;5075093;28;20154;-58
2021/03/09 11:13:51;;;;;;;6.38;2.85;;;8.70;37.60;;;;;;5067568;28;20085;-61
2021/03/09 11:16:17;;;;;;;7.57;2.10;;;8.70;37.10;;;;;;5080575;28;20764;-60
2021/03/09 11:18:43;;;;;;;4.22;2.10;;;8.90;38.20;;;;;;5084000;28;20198;-59
2021/03/09 11:21:09;;;;;;;4.65;1.73;;;9.10;36.40;;;;;;5087588;28;20031;-58
2021/03/09 11:23:36;;;;;;;2.58;1.83;;;9.20;33.50;;;;;;5074697;28;20036;-58
2021/03/09 11:26:02;;;;;;;3.50;2.03;;;9.30;35.00;;;;;;5087759;28;20717;-59
2021/03/09 11:28:28;;;;;;;4.07;1.90;;;9.30;37.10;;;;;;5088302;28;20031;-58
2021/03/09 11:30:53;;;;;;;5.63;2.63;;;9.30;37.00;;;;;;5095182;28;20019;-58
2021/03/09 11:33:19;;;;;;;5.47;2.00;;;9.20;37.10;;;;;;5091576;28;20514;-59
2021/03/09 11:35:45;;;;;;;3.03;1.60;;;9.30;34.20;;;;;;5082547;28;20688;-58
2021/03/09 11:38:10;;;;;;;3.03;1.52;;;9.30;34.90;;;;;;5087411;28;20035;-61
2021/03/09 11:40:36;;;;;;;5.68;2.05;;;9.20;32.80;;;;;;5079387;28;20488;-61
2021/03/09 11:43:03;;;;;;;2.38;1.58;;;9.00;34.50;;;;;;5090264;28;20118;-58
2021/03/09 11:45:29;;;;;;;3.63;2.00;;;9.00;35.20;;;;;;5083012;28;20774;-61
2021/03/09 11:47:55;;;;;;;4.32;2.10;;;9.00;37.70;;;;;;5087294;28;20040;-60
2021/03/09 11:50:20;;;;;;;3.38;2.00;;;9.00;37.70;;;;;;5083129;28;20047;-60
2021/03/09 11:52:46;;;;;;;4.30;1.45;;;9.00;37.90;;;;;;5080905;28;20063;-60
2021/03/09 11:55:12;;;;;;;4.10;1.67;;;8.90;37.00;;;;;;5080666;28;20039;-61
2021/03/09 11:57:38;;;;;;;3.10;1.60;;;8.80;36.10;;;;;;5080113;28;20032;-60
2021/03/09 12:00:07;;;;;;;4.45;2.25;;;8.80;36.90;;;;;;5058918;28;20043;-60
2021/03/09 12:02:34;;;;;;;2.83;1.60;;;8.60;38.00;;;;;;5080328;28;20367;-60
2021/03/09 12:05:00;;;;;;;4.22;1.88;;;8.70;34.40;;;;;;5067849;28;20063;-60
2021/03/09 12:07:25;;;;;;;2.47;1.77;;;8.70;33.50;;;;;;5073799;28;20791;-58
2021/03/09 12:09:51;;;;;;;3.85;1.90;;;8.80;34.90;;;;;;5084601;28;20073;-60
2021/03/09 12:12:17;;;;;;;3.33;1.80;;;8.90;35.40;;;;;;5083151;28;20076;-60
2021/03/09 12:14:43;;;;;;;3.92;1.70;;;8.90;33.90;;;;;;5089126;28;20035;-61
2021/03/09 12:17:09;;;;;;;4.03;2.20;;;8.90;34.00;;;;;;5060552;28;20442;-60
2021/03/09 12:19:35;;;;;;;3.92;1.85;;;9.00;37.20;;;;;;5078084;28;20054;-60
2021/03/09 12:22:00;;;;;;;5.00;2.17;;;9.10;35.30;;;;;;5079362;28;20035;-60
2021/03/09 12:24:26;;;;;;;5.18;2.38;;;9.10;36.10;;;;;;5088181;28;20063;-60
2021/03/09 12:26:51;;;;;;;3.35;1.90;;;9.10;38.90;;;;;;5065389;28;20027;-60
2021/03/09 12:29:18;;;;;;;4.45;2.20;;;9.10;36.00;;;;;;5087733;28;21023;-60
2021/03/09 12:31:44;;;;;;;3.63;2.10;;;9.00;37.70;;;;;;5091333;28;20032;-58
2021/03/09 12:34:10;;;;;;;3.60;1.88;;;9.10;36.70;;;;;;5080393;28;20036;-60
2021/03/09 12:36:35;;;;;;;7.40;2.30;;;9.20;36.00;;;;;;5077972;28;20123;-61
2021/03/09 12:39:02;;;;;;;4.93;2.03;;;9.30;34.90;;;;;;5082594;28;20834;-61
2021/03/09 12:41:28;;;;;;;3.05;2.25;;;9.30;36.10;;;;;;5086059;28;20043;-59
2021/03/09 12:43:53;;;;;;;2.63;2.15;;;9.50;35.80;;;;;;5088180;28;20035;-60
2021/03/09 12:46:19;;;;;;;3.03;1.92;;;9.60;37.30;;;;;;5081509;28;20032;-61
2021/03/09 12:48:44;;;;;;;2.40;1.55;;;9.50;32.10;;;;;;5082890;28;20036;-62
2021/03/09 12:51:10;;;;;;;3.75;1.38;;;9.50;31.40;;;;;;5087962;28;20038;-61
2021/03/09 12:53:36;;;;;;;2.38;1.75;;;9.20;32.00;;;;;;5080932;28;20688;-63
2021/03/09 12:56:02;;;;;;;6.93;1.50;;;8.90;31.60;;;;;;5085666;28;20146;-61
2021/03/09 12:58:28;;;;;;;2.38;1.63;;;9.00;34.50;;;;;;5067706;28;20140;-61
2021/03/09 13:00:53;;;;;;;5.22;1.50;;;9.10;33.10;;;;;;5059111;28;20041;-63
2021/03/09 13:03:19;;;;;;;2.97;1.65;;;9.10;33.00;;;;;;5092093;28;20032;-62
2021/03/09 13:05:45;;;;;;;2.03;1.17;;;9.20;32.90;;;;;;5085409;28;20035;-63
2021/03/09 13:08:10;;;;;;;1.42;1.02;;;9.30;31.90;;;;;;5081432;28;20066;-63